sensor_id;sensor_type;location;lat;lon;timestamp;pressure;altitude;pressure_sealevel;temperature;humidity
64503;BME280;50971;51.940;21.258;2024-03-22T00:01:05;100710.61;;;7.27;100.00
64503;BME280;50971;51.940;21.258;2024-03-22T00:11:06;100706.37;;;7.16;100.00
64503;BME280;50971;51.940;21.258;2024-03-22T00:21:08;100701.18;;;7.19;100.00
64503;BME280;50971;51.940;21.258;2024-03-22T00:31:10;100688.72;;;7.17;100.00
64503;BME280;50971;51.940;21.258;2024-03-22T00:41:11;100670.06;;;7.13;100.00
64503;BME280;50971;51.940;21.258;2024-03-22T00:51:13;100658.67;;;7.22;100.00
64503;BME280;50971;51.940;21.258;2024-03-22T01:01:14;100660.50;;;7.39;100.00
64503;BME280;50971;51.940;21.258;2024-03-22T01:11:16;100661.44;;;7.53;100.00
64503;BME280;50971;51.940;21.258;2024-03-22T01:21:18;100653.67;;;7.46;100.00
64503;BME280;50971;51.940;21.258;2024-03-22T01:31:19;100649.52;;;7.29;100.00
64503;BME280;50971;51.940;21.258;2024-03-22T01:41:21;100640.68;;;7.32;100.00
64503;BME280;50971;51.940;21.258;2024-03-22T01:51:23;100633.12;;;7.32;100.00
64503;BME280;50971;51.940;21.258;2024-03-22T02:01:24;100628.46;;;7.22;100.00
64503;BME280;50971;51.940;21.258;2024-03-22T02:11:28;100621.81;;;7.20;100.00
64503;BME280;50971;51.940;21.258;2024-03-22T02:21:30;100622.09;;;7.42;100.00
64503;BME280;50971;51.940;21.258;2024-03-22T02:31:32;100619.33;;;7.69;100.00
64503;BME280;50971;51.940;21.258;2024-03-22T02:41:34;100617.98;;;7.92;100.00
64503;BME280;50971;51.940;21.258;2024-03-22T02:51:35;100609.25;;;8.06;100.00
64503;BME280;50971;51.940;21.258;2024-03-22T03:01:37;100607.48;;;8.02;100.00
64503;BME280;50971;51.940;21.258;2024-03-22T03:11:41;100609.13;;;7.98;100.00
64503;BME280;50971;51.940;21.258;2024-03-22T03:21:43;100603.60;;;8.11;100.00
64503;BME280;50971;51.940;21.258;2024-03-22T03:31:45;100603.17;;;8.29;100.00
64503;BME280;50971;51.940;21.258;2024-03-22T03:41:46;100598.89;;;8.46;100.00
64503;BME280;50971;51.940;21.258;2024-03-22T03:51:48;100596.42;;;8.62;100.00
64503;BME280;50971;51.940;21.258;2024-03-22T04:01:49;100592.42;;;8.71;100.00
64503;BME280;50971;51.940;21.258;2024-03-22T04:11:51;100588.49;;;8.64;100.00
64503;BME280;50971;51.940;21.258;2024-03-22T04:21:53;100587.33;;;8.52;100.00
64503;BME280;50971;51.940;21.258;2024-03-22T04:31:54;100589.81;;;8.57;100.00
64503;BME280;50971;51.940;21.258;2024-03-22T04:41:57;100594.23;;;8.65;100.00
64503;BME280;50971;51.940;21.258;2024-03-22T04:51:59;100595.13;;;8.73;100.00
64503;BME280;50971;51.940;21.258;2024-03-22T05:02:00;100606.83;;;8.71;100.00
64503;BME280;50971;51.940;21.258;2024-03-22T05:12:02;100621.61;;;8.50;100.00
64503;BME280;50971;51.940;21.258;2024-03-22T05:22:04;100647.17;;;8.18;100.00
64503;BME280;50971;51.940;21.258;2024-03-22T05:32:06;100648.70;;;7.86;100.00
64503;BME280;50971;51.940;21.258;2024-03-22T05:42:08;100657.48;;;7.69;100.00
64503;BME280;50971;51.940;21.258;2024-03-22T05:52:09;100665.90;;;7.56;100.00
64503;BME280;50971;51.940;21.258;2024-03-22T06:02:11;100667.37;;;7.55;100.00
64503;BME280;50971;51.940;21.258;2024-03-22T06:12:13;100668.68;;;7.73;100.00
64503;BME280;50971;51.940;21.258;2024-03-22T06:22:15;100677.75;;;7.88;100.00
64503;BME280;50971;51.940;21.258;2024-03-22T06:32:16;100672.55;;;8.03;100.00
64503;BME280;50971;51.940;21.258;2024-03-22T06:42:18;100658.62;;;8.10;100.00
64503;BME280;50971;51.940;21.258;2024-03-22T06:52:19;100655.36;;;8.18;100.00
64503;BME280;50971;51.940;21.258;2024-03-22T07:02:21;100658.77;;;8.65;100.00
64503;BME280;50971;51.940;21.258;2024-03-22T07:12:23;100663.52;;;9.18;100.00
64503;BME280;50971;51.940;21.258;2024-03-22T07:22:24;100667.81;;;9.48;100.00
64503;BME280;50971;51.940;21.258;2024-03-22T07:32:26;100667.09;;;9.54;100.00
64503;BME280;50971;51.940;21.258;2024-03-22T07:42:28;100662.02;;;9.65;100.00
64503;BME280;50971;51.940;21.258;2024-03-22T07:52:29;100662.59;;;9.94;100.00
64503;BME280;50971;51.940;21.258;2024-03-22T08:02:31;100660.09;;;10.44;100.00
64503;BME280;50971;51.940;21.258;2024-03-22T08:12:33;100661.02;;;10.41;100.00
64503;BME280;50971;51.940;21.258;2024-03-22T08:22:35;100652.40;;;10.18;100.00
64503;BME280;50971;51.940;21.258;2024-03-22T08:32:37;100653.34;;;10.32;100.00
64503;BME280;50971;51.940;21.258;2024-03-22T08:42:38;100647.42;;;10.43;100.00
64503;BME280;50971;51.940;21.258;2024-03-22T08:52:40;100640.32;;;10.57;100.00
64503;BME280;50971;51.940;21.258;2024-03-22T09:02:42;100643.72;;;10.81;100.00
64503;BME280;50971;51.940;21.258;2024-03-22T09:12:44;100642.60;;;11.02;100.00
64503;BME280;50971;51.940;21.258;2024-03-22T10:37:00;100601.08;;;11.96;100.00
64503;BME280;50971;51.940;21.258;2024-03-22T10:47:04;100581.63;;;12.65;100.00
64503;BME280;50971;51.940;21.258;2024-03-22T10:57:12;100567.05;;;12.83;100.00
64503;BME280;50971;51.940;21.258;2024-03-22T11:07:21;100560.70;;;13.46;100.00
64503;BME280;50971;51.940;21.258;2024-03-22T11:17:23;100551.17;;;13.16;100.00
64503;BME280;50971;51.940;21.258;2024-03-22T11:27:26;100544.02;;;13.21;100.00
64503;BME280;50971;51.940;21.258;2024-03-22T11:37:28;100533.96;;;13.95;100.00
64503;BME280;50971;51.940;21.258;2024-03-22T11:47:30;100519.73;;;14.16;100.00
64503;BME280;50971;51.940;21.258;2024-03-22T11:57:32;100510.04;;;13.75;100.00
64503;BME280;50971;51.940;21.258;2024-03-22T12:07:34;100508.87;;;13.40;100.00
64503;BME280;50971;51.940;21.258;2024-03-22T12:17:35;100499.58;;;13.63;100.00
64503;BME280;50971;51.940;21.258;2024-03-22T12:27:38;100491.06;;;13.79;100.00
64503;BME280;50971;51.940;21.258;2024-03-22T12:37:40;100484.98;;;13.97;100.00
64503;BME280;50971;51.940;21.258;2024-03-22T12:47:42;100479.33;;;13.97;100.00
64503;BME280;50971;51.940;21.258;2024-03-22T12:57:43;100456.84;;;14.17;100.00
64503;BME280;50971;51.940;21.258;2024-03-22T13:07:45;100440.79;;;14.43;100.00
64503;BME280;50971;51.940;21.258;2024-03-22T13:17:47;100417.45;;;14.56;100.00
64503;BME280;50971;51.940;21.258;2024-03-22T13:27:48;100414.58;;;14.30;100.00
64503;BME280;50971;51.940;21.258;2024-03-22T13:37:50;100407.64;;;13.87;100.00
64503;BME280;50971;51.940;21.258;2024-03-22T13:47:52;100406.99;;;13.50;100.00
64503;BME280;50971;51.940;21.258;2024-03-22T13:57:53;100396.86;;;13.25;100.00
64503;BME280;50971;51.940;21.258;2024-03-22T14:08:08;100374.77;;;12.88;100.00
64503;BME280;50971;51.940;21.258;2024-03-22T14:18:10;100367.79;;;12.61;100.00
64503;BME280;50971;51.940;21.258;2024-03-22T14:28:11;100366.81;;;12.51;100.00
64503;BME280;50971;51.940;21.258;2024-03-22T14:38:13;100358.98;;;12.24;100.00
64503;BME280;50971;51.940;21.258;2024-03-22T14:48:15;100347.30;;;11.97;100.00
64503;BME280;50971;51.940;21.258;2024-03-22T14:58:16;100337.81;;;11.79;100.00
64503;BME280;50971;51.940;21.258;2024-03-22T15:08:18;100323.14;;;11.77;100.00
64503;BME280;50971;51.940;21.258;2024-03-22T15:18:20;100299.23;;;11.61;100.00
64503;BME280;50971;51.940;21.258;2024-03-22T15:28:22;100297.13;;;11.31;100.00
64503;BME280;50971;51.940;21.258;2024-03-22T15:38:23;100276.83;;;11.04;100.00
64503;BME280;50971;51.940;21.258;2024-03-22T15:48:25;100272.48;;;10.96;100.00
64503;BME280;50971;51.940;21.258;2024-03-22T15:58:27;100263.35;;;10.90;100.00
64503;BME280;50971;51.940;21.258;2024-03-22T16:08:29;100247.05;;;10.74;100.00
64503;BME280;50971;51.940;21.258;2024-03-22T16:18:30;100234.38;;;10.48;100.00
64503;BME280;50971;51.940;21.258;2024-03-22T16:28:33;100228.83;;;10.41;100.00
64503;BME280;50971;51.940;21.258;2024-03-22T16:38:35;100218.25;;;10.34;100.00
64503;BME280;50971;51.940;21.258;2024-03-22T16:48:37;100216.20;;;10.16;100.00
64503;BME280;50971;51.940;21.258;2024-03-22T16:58:38;100207.02;;;9.96;100.00
64503;BME280;50971;51.940;21.258;2024-03-22T17:08:40;100200.06;;;9.91;100.00
64503;BME280;50971;51.940;21.258;2024-03-22T17:18:41;100203.01;;;9.97;100.00
64503;BME280;50971;51.940;21.258;2024-03-22T17:28:44;100205.30;;;10.06;100.00
64503;BME280;50971;51.940;21.258;2024-03-22T17:38:46;100195.92;;;9.96;100.00
64503;BME280;50971;51.940;21.258;2024-03-22T17:48:48;100174.14;;;9.78;100.00
64503;BME280;50971;51.940;21.258;2024-03-22T17:58:49;100169.84;;;9.77;100.00
64503;BME280;50971;51.940;21.258;2024-03-22T18:08:51;100158.37;;;9.81;100.00
64503;BME280;50971;51.940;21.258;2024-03-22T18:18:53;100156.63;;;9.76;100.00
64503;BME280;50971;51.940;21.258;2024-03-22T18:28:55;100148.59;;;9.67;100.00
64503;BME280;50971;51.940;21.258;2024-03-22T18:38:56;100140.65;;;9.72;100.00
64503;BME280;50971;51.940;21.258;2024-03-22T18:48:58;100128.50;;;9.80;100.00
64503;BME280;50971;51.940;21.258;2024-03-22T18:59:00;100126.60;;;9.88;100.00
64503;BME280;50971;51.940;21.258;2024-03-22T19:09:01;100118.08;;;9.82;100.00
64503;BME280;50971;51.940;21.258;2024-03-22T19:19:03;100103.20;;;9.72;100.00
64503;BME280;50971;51.940;21.258;2024-03-22T19:29:12;100084.64;;;9.71;100.00
64503;BME280;50971;51.940;21.258;2024-03-22T19:39:14;100070.11;;;9.76;100.00
64503;BME280;50971;51.940;21.258;2024-03-22T19:49:17;100061.48;;;9.70;100.00
64503;BME280;50971;51.940;21.258;2024-03-22T19:59:19;100058.77;;;9.62;100.00
64503;BME280;50971;51.940;21.258;2024-03-22T20:09:21;100051.25;;;9.66;100.00
64503;BME280;50971;51.940;21.258;2024-03-22T20:19:23;100041.45;;;9.72;100.00
64503;BME280;50971;51.940;21.258;2024-03-22T20:29:25;100035.99;;;9.69;100.00
